sensor_id;sensor_type;location;lat;lon;timestamp;temperature;humidity
46754;DHT22;32500;50.620;3.400;2024-02-21T00:00:40;15.60;72.20
46754;DHT22;32500;50.620;3.400;2024-02-21T00:03:07;15.60;72.30
46754;DHT22;32500;50.620;3.400;2024-02-21T00:05:32;15.50;72.30
46754;DHT22;32500;50.620;3.400;2024-02-21T00:08:02;15.50;72.30
46754;DHT22;32500;50.620;3.400;2024-02-21T00:10:28;15.60;72.40
46754;DHT22;32500;50.620;3.400;2024-02-21T00:12:54;15.50;72.30
46754;DHT22;32500;50.620;3.400;2024-02-21T00:15:20;15.50;72.40
46754;DHT22;32500;50.620;3.400;2024-02-21T00:17:46;15.50;72.40
46754;DHT22;32500;50.620;3.400;2024-02-21T00:20:12;15.50;72.40
46754;DHT22;32500;50.620;3.400;2024-02-21T00:22:38;15.50;72.40
46754;DHT22;32500;50.620;3.400;2024-02-21T00:25:04;15.50;72.50
46754;DHT22;32500;50.620;3.400;2024-02-21T00:27:30;15.50;72.60
46754;DHT22;32500;50.620;3.400;2024-02-21T00:29:56;15.40;72.60
46754;DHT22;32500;50.620;3.400;2024-02-21T00:32:22;15.50;72.70
46754;DHT22;32500;50.620;3.400;2024-02-21T00:34:47;15.40;72.70
46754;DHT22;32500;50.620;3.400;2024-02-21T00:37:13;15.40;72.60
46754;DHT22;32500;50.620;3.400;2024-02-21T00:39:39;15.50;72.70
46754;DHT22;32500;50.620;3.400;2024-02-21T00:42:04;15.50;72.70
46754;DHT22;32500;50.620;3.400;2024-02-21T00:44:30;15.40;72.70
46754;DHT22;32500;50.620;3.400;2024-02-21T00:46:56;15.50;72.80
46754;DHT22;32500;50.620;3.400;2024-02-21T00:49:21;15.50;72.80
46754;DHT22;32500;50.620;3.400;2024-02-21T00:51:47;15.50;72.90
46754;DHT22;32500;50.620;3.400;2024-02-21T00:54:13;15.40;72.80
46754;DHT22;32500;50.620;3.400;2024-02-21T00:56:39;15.50;72.80
46754;DHT22;32500;50.620;3.400;2024-02-21T00:59:04;15.50;72.70
46754;DHT22;32500;50.620;3.400;2024-02-21T01:01:30;15.50;72.80
46754;DHT22;32500;50.620;3.400;2024-02-21T01:03:55;15.50;72.80
46754;DHT22;32500;50.620;3.400;2024-02-21T01:06:21;15.40;72.80
46754;DHT22;32500;50.620;3.400;2024-02-21T01:08:47;15.40;72.90
46754;DHT22;32500;50.620;3.400;2024-02-21T01:11:14;15.40;72.90
46754;DHT22;32500;50.620;3.400;2024-02-21T01:13:40;15.40;72.90
46754;DHT22;32500;50.620;3.400;2024-02-21T01:16:06;15.40;72.80
46754;DHT22;32500;50.620;3.400;2024-02-21T01:18:38;15.40;72.80
46754;DHT22;32500;50.620;3.400;2024-02-21T01:21:08;15.40;72.90
46754;DHT22;32500;50.620;3.400;2024-02-21T01:23:36;15.40;72.90
46754;DHT22;32500;50.620;3.400;2024-02-21T01:26:03;15.40;72.90
46754;DHT22;32500;50.620;3.400;2024-02-21T01:28:29;15.30;72.90
46754;DHT22;32500;50.620;3.400;2024-02-21T01:30:56;15.40;73.10
46754;DHT22;32500;50.620;3.400;2024-02-21T01:33:22;15.40;73.00
46754;DHT22;32500;50.620;3.400;2024-02-21T01:35:48;15.40;72.90
46754;DHT22;32500;50.620;3.400;2024-02-21T01:38:15;15.40;73.00
46754;DHT22;32500;50.620;3.400;2024-02-21T01:40:40;15.40;73.00
46754;DHT22;32500;50.620;3.400;2024-02-21T01:43:19;15.40;73.00
46754;DHT22;32500;50.620;3.400;2024-02-21T01:45:52;15.40;73.00
46754;DHT22;32500;50.620;3.400;2024-02-21T01:48:19;15.30;73.10
46754;DHT22;32500;50.620;3.400;2024-02-21T01:50:53;15.30;73.10
46754;DHT22;32500;50.620;3.400;2024-02-21T01:53:22;15.30;73.20
46754;DHT22;32500;50.620;3.400;2024-02-21T01:55:48;15.30;73.20
46754;DHT22;32500;50.620;3.400;2024-02-21T01:58:17;15.30;73.20
46754;DHT22;32500;50.620;3.400;2024-02-21T02:00:46;15.30;73.30
46754;DHT22;32500;50.620;3.400;2024-02-21T02:03:13;15.30;73.20
46754;DHT22;32500;50.620;3.400;2024-02-21T02:05:47;15.30;73.30
46754;DHT22;32500;50.620;3.400;2024-02-21T02:08:16;15.30;73.20
46754;DHT22;32500;50.620;3.400;2024-02-21T02:10:43;15.30;73.30
46754;DHT22;32500;50.620;3.400;2024-02-21T02:13:09;15.30;73.30
46754;DHT22;32500;50.620;3.400;2024-02-21T02:15:43;15.30;73.30
46754;DHT22;32500;50.620;3.400;2024-02-21T02:18:09;15.30;73.30
46754;DHT22;32500;50.620;3.400;2024-02-21T02:20:35;15.30;73.20
46754;DHT22;32500;50.620;3.400;2024-02-21T02:23:10;15.30;73.30
46754;DHT22;32500;50.620;3.400;2024-02-21T02:25:37;15.20;73.40
46754;DHT22;32500;50.620;3.400;2024-02-21T02:28:06;15.20;73.40
46754;DHT22;32500;50.620;3.400;2024-02-21T02:30:36;15.30;73.40
46754;DHT22;32500;50.620;3.400;2024-02-21T02:33:03;15.30;73.40
46754;DHT22;32500;50.620;3.400;2024-02-21T02:35:29;15.20;73.30
46754;DHT22;32500;50.620;3.400;2024-02-21T02:37:54;15.20;73.30
46754;DHT22;32500;50.620;3.400;2024-02-21T02:40:20;15.20;73.30
46754;DHT22;32500;50.620;3.400;2024-02-21T02:42:46;15.20;73.20
46754;DHT22;32500;50.620;3.400;2024-02-21T02:45:17;15.30;73.30
46754;DHT22;32500;50.620;3.400;2024-02-21T02:47:46;15.20;73.30
46754;DHT22;32500;50.620;3.400;2024-02-21T02:50:12;15.20;73.40
46754;DHT22;32500;50.620;3.400;2024-02-21T02:52:38;15.20;73.40
46754;DHT22;32500;50.620;3.400;2024-02-21T02:55:04;15.20;73.50
46754;DHT22;32500;50.620;3.400;2024-02-21T02:57:30;15.20;73.40
46754;DHT22;32500;50.620;3.400;2024-02-21T02:59:56;15.20;73.40
46754;DHT22;32500;50.620;3.400;2024-02-21T03:02:22;15.20;73.30
46754;DHT22;32500;50.620;3.400;2024-02-21T03:04:48;15.20;73.50
46754;DHT22;32500;50.620;3.400;2024-02-21T03:07:14;15.20;73.40
46754;DHT22;32500;50.620;3.400;2024-02-21T03:09:41;15.20;73.50
46754;DHT22;32500;50.620;3.400;2024-02-21T03:12:08;15.10;73.50
46754;DHT22;32500;50.620;3.400;2024-02-21T03:14:34;15.20;73.60
46754;DHT22;32500;50.620;3.400;2024-02-21T03:17:01;15.20;73.60
46754;DHT22;32500;50.620;3.400;2024-02-21T03:19:27;15.20;73.50
46754;DHT22;32500;50.620;3.400;2024-02-21T03:21:53;15.20;73.50
46754;DHT22;32500;50.620;3.400;2024-02-21T03:24:19;15.20;73.50
46754;DHT22;32500;50.620;3.400;2024-02-21T03:26:45;15.10;73.40
46754;DHT22;32500;50.620;3.400;2024-02-21T03:29:20;15.10;73.50
46754;DHT22;32500;50.620;3.400;2024-02-21T03:31:45;15.10;73.50
46754;DHT22;32500;50.620;3.400;2024-02-21T03:34:11;15.10;73.50
46754;DHT22;32500;50.620;3.400;2024-02-21T03:36:36;15.10;73.50
46754;DHT22;32500;50.620;3.400;2024-02-21T03:39:02;15.10;73.50
46754;DHT22;32500;50.620;3.400;2024-02-21T03:41:28;15.20;73.60
46754;DHT22;32500;50.620;3.400;2024-02-21T03:43:54;15.20;73.50
46754;DHT22;32500;50.620;3.400;2024-02-21T03:46:20;15.10;73.50
46754;DHT22;32500;50.620;3.400;2024-02-21T03:48:45;15.10;73.50
46754;DHT22;32500;50.620;3.400;2024-02-21T03:51:11;15.10;73.50
46754;DHT22;32500;50.620;3.400;2024-02-21T03:53:37;15.10;73.40
46754;DHT22;32500;50.620;3.400;2024-02-21T03:56:03;15.10;73.60
46754;DHT22;32500;50.620;3.400;2024-02-21T03:58:32;15.10;73.40
46754;DHT22;32500;50.620;3.400;2024-02-21T04:01:00;15.10;73.50
46754;DHT22;32500;50.620;3.400;2024-02-21T04:03:27;15.10;73.60
46754;DHT22;32500;50.620;3.400;2024-02-21T04:05:52;15.10;73.80
46754;DHT22;32500;50.620;3.400;2024-02-21T04:08:18;15.10;73.60
46754;DHT22;32500;50.620;3.400;2024-02-21T04:10:44;15.10;73.50
46754;DHT22;32500;50.620;3.400;2024-02-21T04:13:10;15.10;73.50
46754;DHT22;32500;50.620;3.400;2024-02-21T04:15:35;15.10;73.50
46754;DHT22;32500;50.620;3.400;2024-02-21T04:18:02;15.10;73.50
46754;DHT22;32500;50.620;3.400;2024-02-21T04:20:28;15.10;73.50
46754;DHT22;32500;50.620;3.400;2024-02-21T04:22:55;15.10;73.50
46754;DHT22;32500;50.620;3.400;2024-02-21T04:25:20;15.00;73.50
46754;DHT22;32500;50.620;3.400;2024-02-21T04:27:46;15.10;73.70
46754;DHT22;32500;50.620;3.400;2024-02-21T04:30:12;15.10;73.60
46754;DHT22;32500;50.620;3.400;2024-02-21T04:32:39;15.10;73.60
46754;DHT22;32500;50.620;3.400;2024-02-21T04:35:05;15.10;73.60
46754;DHT22;32500;50.620;3.400;2024-02-21T04:37:30;15.10;73.50
46754;DHT22;32500;50.620;3.400;2024-02-21T04:39:56;15.10;73.50
46754;DHT22;32500;50.620;3.400;2024-02-21T04:42:22;15.10;74.20
46754;DHT22;32500;50.620;3.400;2024-02-21T04:44:48;15.10;73.50
46754;DHT22;32500;50.620;3.400;2024-02-21T04:47:14;15.10;73.60
46754;DHT22;32500;50.620;3.400;2024-02-21T04:49:39;15.10;73.50
46754;DHT22;32500;50.620;3.400;2024-02-21T04:52:05;15.10;73.50
46754;DHT22;32500;50.620;3.400;2024-02-21T04:54:31;15.10;73.50
46754;DHT22;32500;50.620;3.400;2024-02-21T04:56:57;15.10;73.60
46754;DHT22;32500;50.620;3.400;2024-02-21T04:59:22;15.10;73.50
46754;DHT22;32500;50.620;3.400;2024-02-21T05:01:48;15.10;73.40
46754;DHT22;32500;50.620;3.400;2024-02-21T05:04:13;15.10;73.50
46754;DHT22;32500;50.620;3.400;2024-02-21T05:06:42;15.10;73.40
46754;DHT22;32500;50.620;3.400;2024-02-21T05:09:09;15.10;73.50
46754;DHT22;32500;50.620;3.400;2024-02-21T05:11:35;15.10;73.50
46754;DHT22;32500;50.620;3.400;2024-02-21T05:14:01;15.10;74.30
46754;DHT22;32500;50.620;3.400;2024-02-21T05:16:28;15.10;74.60
46754;DHT22;32500;50.620;3.400;2024-02-21T05:18:53;15.20;74.80
46754;DHT22;32500;50.620;3.400;2024-02-21T05:21:19;15.20;74.80
46754;DHT22;32500;50.620;3.400;2024-02-21T05:23:45;15.20;75.00
46754;DHT22;32500;50.620;3.400;2024-02-21T05:26:10;15.20;75.00
46754;DHT22;32500;50.620;3.400;2024-02-21T05:28:36;15.30;75.00
46754;DHT22;32500;50.620;3.400;2024-02-21T05:31:02;15.20;75.00
46754;DHT22;32500;50.620;3.400;2024-02-21T05:33:27;15.30;75.10
46754;DHT22;32500;50.620;3.400;2024-02-21T05:35:53;15.20;75.00
46754;DHT22;32500;50.620;3.400;2024-02-21T05:38:19;15.30;75.00
46754;DHT22;32500;50.620;3.400;2024-02-21T05:40:45;15.30;75.00
46754;DHT22;32500;50.620;3.400;2024-02-21T05:43:11;15.30;74.90
46754;DHT22;32500;50.620;3.400;2024-02-21T05:45:36;15.30;74.90
46754;DHT22;32500;50.620;3.400;2024-02-21T05:48:03;15.30;74.90
46754;DHT22;32500;50.620;3.400;2024-02-21T05:50:29;15.30;74.90
46754;DHT22;32500;50.620;3.400;2024-02-21T05:52:55;15.30;74.90
46754;DHT22;32500;50.620;3.400;2024-02-21T05:55:22;15.30;74.90
46754;DHT22;32500;50.620;3.400;2024-02-21T05:57:47;15.30;74.80
46754;DHT22;32500;50.620;3.400;2024-02-21T06:00:13;15.30;74.90
46754;DHT22;32500;50.620;3.400;2024-02-21T06:02:39;15.40;74.90
46754;DHT22;32500;50.620;3.400;2024-02-21T06:05:06;15.40;74.90
46754;DHT22;32500;50.620;3.400;2024-02-21T06:07:36;15.40;74.90
46754;DHT22;32500;50.620;3.400;2024-02-21T06:10:02;15.40;74.80
46754;DHT22;32500;50.620;3.400;2024-02-21T06:12:28;15.40;74.90
46754;DHT22;32500;50.620;3.400;2024-02-21T06:14:54;15.40;75.10
46754;DHT22;32500;50.620;3.400;2024-02-21T06:17:19;15.40;75.90
46754;DHT22;32500;50.620;3.400;2024-02-21T06:19:45;15.40;76.30
46754;DHT22;32500;50.620;3.400;2024-02-21T06:22:11;15.40;76.10
46754;DHT22;32500;50.620;3.400;2024-02-21T06:24:37;15.40;76.20
46754;DHT22;32500;50.620;3.400;2024-02-21T06:27:06;15.40;76.30
46754;DHT22;32500;50.620;3.400;2024-02-21T06:29:32;15.40;76.20
46754;DHT22;32500;50.620;3.400;2024-02-21T06:31:58;15.40;76.00
46754;DHT22;32500;50.620;3.400;2024-02-21T06:34:24;15.40;75.90
46754;DHT22;32500;50.620;3.400;2024-02-21T06:36:50;15.40;75.80
46754;DHT22;32500;50.620;3.400;2024-02-21T06:39:16;15.40;75.60
46754;DHT22;32500;50.620;3.400;2024-02-21T06:41:42;15.40;75.50
46754;DHT22;32500;50.620;3.400;2024-02-21T06:44:08;15.50;75.40
46754;DHT22;32500;50.620;3.400;2024-02-21T06:46:34;15.50;75.60
46754;DHT22;32500;50.620;3.400;2024-02-21T06:49:00;15.40;76.10
46754;DHT22;32500;50.620;3.400;2024-02-21T06:51:27;15.40;76.10
46754;DHT22;32500;50.620;3.400;2024-02-21T06:53:53;15.50;75.90
46754;DHT22;32500;50.620;3.400;2024-02-21T06:56:19;15.50;75.90
46754;DHT22;32500;50.620;3.400;2024-02-21T06:58:45;15.50;76.00
46754;DHT22;32500;50.620;3.400;2024-02-21T07:01:11;15.50;75.90
46754;DHT22;32500;50.620;3.400;2024-02-21T07:03:37;15.50;75.80
46754;DHT22;32500;50.620;3.400;2024-02-21T07:06:03;15.50;75.90
46754;DHT22;32500;50.620;3.400;2024-02-21T07:08:28;15.50;75.90
46754;DHT22;32500;50.620;3.400;2024-02-21T07:10:54;15.50;76.00
46754;DHT22;32500;50.620;3.400;2024-02-21T07:13:20;15.50;76.30
46754;DHT22;32500;50.620;3.400;2024-02-21T07:15:47;15.50;76.40
46754;DHT22;32500;50.620;3.400;2024-02-21T07:18:13;15.50;76.40
46754;DHT22;32500;50.620;3.400;2024-02-21T07:20:39;15.50;76.50
46754;DHT22;32500;50.620;3.400;2024-02-21T07:23:07;15.50;76.80
46754;DHT22;32500;50.620;3.400;2024-02-21T07:25:33;15.50;76.90
46754;DHT22;32500;50.620;3.400;2024-02-21T07:27:58;15.50;77.10
46754;DHT22;32500;50.620;3.400;2024-02-21T07:30:24;15.60;77.10
46754;DHT22;32500;50.620;3.400;2024-02-21T07:32:50;15.60;77.10
46754;DHT22;32500;50.620;3.400;2024-02-21T07:35:17;15.50;77.20
46754;DHT22;32500;50.620;3.400;2024-02-21T07:37:43;15.60;77.30
46754;DHT22;32500;50.620;3.400;2024-02-21T07:40:16;15.60;77.50
46754;DHT22;32500;50.620;3.400;2024-02-21T07:42:42;15.60;77.70
46754;DHT22;32500;50.620;3.400;2024-02-21T07:45:08;15.70;78.10
46754;DHT22;32500;50.620;3.400;2024-02-21T07:47:34;15.80;78.30
46754;DHT22;32500;50.620;3.400;2024-02-21T07:50:01;15.90;78.10
46754;DHT22;32500;50.620;3.400;2024-02-21T07:52:26;16.00;78.10
46754;DHT22;32500;50.620;3.400;2024-02-21T07:54:52;16.00;78.10
46754;DHT22;32500;50.620;3.400;2024-02-21T07:57:17;16.10;78.00
46754;DHT22;32500;50.620;3.400;2024-02-21T07:59:43;16.20;77.90
46754;DHT22;32500;50.620;3.400;2024-02-21T08:02:09;16.20;77.50
46754;DHT22;32500;50.620;3.400;2024-02-21T08:04:35;16.20;77.30
46754;DHT22;32500;50.620;3.400;2024-02-21T08:07:01;16.20;76.90
46754;DHT22;32500;50.620;3.400;2024-02-21T08:09:29;16.30;76.00
46754;DHT22;32500;50.620;3.400;2024-02-21T08:11:55;16.30;75.70
46754;DHT22;32500;50.620;3.400;2024-02-21T08:14:21;16.30;75.30
46754;DHT22;32500;50.620;3.400;2024-02-21T08:16:47;16.30;75.10
46754;DHT22;32500;50.620;3.400;2024-02-21T08:19:13;16.30;74.20
46754;DHT22;32500;50.620;3.400;2024-02-21T08:21:39;16.30;74.20
46754;DHT22;32500;50.620;3.400;2024-02-21T08:24:05;16.40;74.00
46754;DHT22;32500;50.620;3.400;2024-02-21T08:26:31;16.50;74.20
46754;DHT22;32500;50.620;3.400;2024-02-21T08:28:57;16.40;73.90
46754;DHT22;32500;50.620;3.400;2024-02-21T08:31:27;16.50;73.90
46754;DHT22;32500;50.620;3.400;2024-02-21T08:34:00;16.50;73.90
46754;DHT22;32500;50.620;3.400;2024-02-21T08:36:35;16.50;73.80
46754;DHT22;32500;50.620;3.400;2024-02-21T08:39:03;16.60;74.00
46754;DHT22;32500;50.620;3.400;2024-02-21T08:41:31;16.60;73.90
46754;DHT22;32500;50.620;3.400;2024-02-21T08:43:57;16.70;74.10
46754;DHT22;32500;50.620;3.400;2024-02-21T08:46:23;16.70;74.00
46754;DHT22;32500;50.620;3.400;2024-02-21T08:48:50;16.80;73.90
46754;DHT22;32500;50.620;3.400;2024-02-21T08:51:19;16.80;73.50
46754;DHT22;32500;50.620;3.400;2024-02-21T08:53:45;16.80;73.60
46754;DHT22;32500;50.620;3.400;2024-02-21T08:56:11;16.80;73.10
46754;DHT22;32500;50.620;3.400;2024-02-21T08:58:38;16.80;72.70
46754;DHT22;32500;50.620;3.400;2024-02-21T09:01:05;16.80;72.40
46754;DHT22;32500;50.620;3.400;2024-02-21T09:03:32;16.90;72.20
46754;DHT22;32500;50.620;3.400;2024-02-21T09:05:59;16.90;72.10
46754;DHT22;32500;50.620;3.400;2024-02-21T09:08:25;16.90;71.80
46754;DHT22;32500;50.620;3.400;2024-02-21T09:10:51;16.90;71.50
46754;DHT22;32500;50.620;3.400;2024-02-21T09:13:16;16.90;71.20
46754;DHT22;32500;50.620;3.400;2024-02-21T09:15:43;17.00;71.40
46754;DHT22;32500;50.620;3.400;2024-02-21T09:18:09;17.00;71.30
46754;DHT22;32500;50.620;3.400;2024-02-21T09:20:35;17.00;71.30
46754;DHT22;32500;50.620;3.400;2024-02-21T09:23:01;17.00;70.90
46754;DHT22;32500;50.620;3.400;2024-02-21T09:25:26;17.00;70.70
46754;DHT22;32500;50.620;3.400;2024-02-21T09:27:54;17.10;70.60
46754;DHT22;32500;50.620;3.400;2024-02-21T09:30:20;17.10;70.70
46754;DHT22;32500;50.620;3.400;2024-02-21T09:32:46;17.10;70.70
46754;DHT22;32500;50.620;3.400;2024-02-21T09:35:12;17.10;70.60
46754;DHT22;32500;50.620;3.400;2024-02-21T09:37:39;17.20;70.60
46754;DHT22;32500;50.620;3.400;2024-02-21T09:40:05;17.10;70.40
46754;DHT22;32500;50.620;3.400;2024-02-21T09:42:41;17.20;70.30
46754;DHT22;32500;50.620;3.400;2024-02-21T09:45:24;17.10;70.30
46754;DHT22;32500;50.620;3.400;2024-02-21T09:50:47;17.20;70.40
46754;DHT22;32500;50.620;3.400;2024-02-21T09:53:14;17.20;70.50
46754;DHT22;32500;50.620;3.400;2024-02-21T09:55:40;17.30;70.00
46754;DHT22;32500;50.620;3.400;2024-02-21T09:58:08;17.30;70.10
46754;DHT22;32500;50.620;3.400;2024-02-21T10:00:35;17.20;70.10
46754;DHT22;32500;50.620;3.400;2024-02-21T10:03:03;17.30;70.30
46754;DHT22;32500;50.620;3.400;2024-02-21T10:05:34;17.30;69.90
46754;DHT22;32500;50.620;3.400;2024-02-21T10:08:02;17.30;70.10
46754;DHT22;32500;50.620;3.400;2024-02-21T10:10:28;17.30;70.10
46754;DHT22;32500;50.620;3.400;2024-02-21T10:12:55;17.30;70.20
46754;DHT22;32500;50.620;3.400;2024-02-21T10:15:25;17.30;70.20
46754;DHT22;32500;50.620;3.400;2024-02-21T10:17:59;17.30;70.10
46754;DHT22;32500;50.620;3.400;2024-02-21T10:20:25;17.30;70.20
46754;DHT22;32500;50.620;3.400;2024-02-21T10:23:01;17.30;70.30
46754;DHT22;32500;50.620;3.400;2024-02-21T10:25:36;17.30;69.90
46754;DHT22;32500;50.620;3.400;2024-02-21T10:28:14;17.40;70.30
46754;DHT22;32500;50.620;3.400;2024-02-21T10:30:51;17.40;70.30
46754;DHT22;32500;50.620;3.400;2024-02-21T10:33:17;17.30;70.30
46754;DHT22;32500;50.620;3.400;2024-02-21T10:35:47;17.40;70.60
46754;DHT22;32500;50.620;3.400;2024-02-21T10:38:13;17.40;70.50
46754;DHT22;32500;50.620;3.400;2024-02-21T10:40:38;17.40;70.60
46754;DHT22;32500;50.620;3.400;2024-02-21T10:43:05;17.40;70.40
46754;DHT22;32500;50.620;3.400;2024-02-21T10:45:37;17.40;70.30
46754;DHT22;32500;50.620;3.400;2024-02-21T10:48:24;17.40;70.50
46754;DHT22;32500;50.620;3.400;2024-02-21T10:51:03;17.40;69.90
46754;DHT22;32500;50.620;3.400;2024-02-21T10:56:33;17.40;70.00
46754;DHT22;32500;50.620;3.400;2024-02-21T10:59:05;17.40;70.20
46754;DHT22;32500;50.620;3.400;2024-02-21T11:01:31;17.40;70.40
46754;DHT22;32500;50.620;3.400;2024-02-21T11:04:01;17.40;70.00
46754;DHT22;32500;50.620;3.400;2024-02-21T11:06:28;17.40;69.80
46754;DHT22;32500;50.620;3.400;2024-02-21T11:09:05;17.50;69.60
46754;DHT22;32500;50.620;3.400;2024-02-21T11:11:38;17.40;69.70
46754;DHT22;32500;50.620;3.400;2024-02-21T11:16:40;17.50;69.60
46754;DHT22;32500;50.620;3.400;2024-02-21T11:19:20;17.40;69.80
46754;DHT22;32500;50.620;3.400;2024-02-21T11:21:47;17.50;70.10
46754;DHT22;32500;50.620;3.400;2024-02-21T11:27:15;17.40;70.30
46754;DHT22;32500;50.620;3.400;2024-02-21T11:29:45;17.40;70.90
46754;DHT22;32500;50.620;3.400;2024-02-21T11:32:14;17.50;71.00
46754;DHT22;32500;50.620;3.400;2024-02-21T11:34:52;17.40;70.70
46754;DHT22;32500;50.620;3.400;2024-02-21T11:37:19;17.40;70.70
46754;DHT22;32500;50.620;3.400;2024-02-21T11:39:45;17.40;70.50
46754;DHT22;32500;50.620;3.400;2024-02-21T11:42:11;17.50;70.70
46754;DHT22;32500;50.620;3.400;2024-02-21T11:44:38;17.50;70.40
46754;DHT22;32500;50.620;3.400;2024-02-21T11:47:07;17.50;70.00
46754;DHT22;32500;50.620;3.400;2024-02-21T11:49:37;17.50;70.00
46754;DHT22;32500;50.620;3.400;2024-02-21T11:52:04;17.50;69.80
46754;DHT22;32500;50.620;3.400;2024-02-21T11:54:33;17.40;69.40
46754;DHT22;32500;50.620;3.400;2024-02-21T11:57:00;17.50;69.30
46754;DHT22;32500;50.620;3.400;2024-02-21T11:59:26;17.40;69.80
46754;DHT22;32500;50.620;3.400;2024-02-21T12:01:53;17.40;69.30
46754;DHT22;32500;50.620;3.400;2024-02-21T12:04:22;17.50;69.20
46754;DHT22;32500;50.620;3.400;2024-02-21T12:06:52;17.50;69.20
46754;DHT22;32500;50.620;3.400;2024-02-21T12:09:22;17.50;69.00
46754;DHT22;32500;50.620;3.400;2024-02-21T12:12:06;17.50;68.80
46754;DHT22;32500;50.620;3.400;2024-02-21T12:14:33;17.50;68.70
46754;DHT22;32500;50.620;3.400;2024-02-21T12:17:02;17.50;68.60
46754;DHT22;32500;50.620;3.400;2024-02-21T12:19:32;17.50;68.50
46754;DHT22;32500;50.620;3.400;2024-02-21T12:21:59;17.50;68.40
46754;DHT22;32500;50.620;3.400;2024-02-21T12:24:26;17.50;68.30
46754;DHT22;32500;50.620;3.400;2024-02-21T12:26:54;17.60;68.60
46754;DHT22;32500;50.620;3.400;2024-02-21T12:29:20;17.60;68.40
46754;DHT22;32500;50.620;3.400;2024-02-21T12:31:47;17.70;68.80
46754;DHT22;32500;50.620;3.400;2024-02-21T12:34:15;17.70;68.00
46754;DHT22;32500;50.620;3.400;2024-02-21T12:36:42;17.70;68.20
46754;DHT22;32500;50.620;3.400;2024-02-21T12:39:12;17.70;68.00
46754;DHT22;32500;50.620;3.400;2024-02-21T12:41:38;17.60;67.90
46754;DHT22;32500;50.620;3.400;2024-02-21T12:44:06;17.60;68.70
46754;DHT22;32500;50.620;3.400;2024-02-21T12:46:36;17.60;67.90
46754;DHT22;32500;50.620;3.400;2024-02-21T12:49:03;17.60;68.20
46754;DHT22;32500;50.620;3.400;2024-02-21T12:51:30;17.60;68.20
46754;DHT22;32500;50.620;3.400;2024-02-21T12:53:56;17.60;68.10
46754;DHT22;32500;50.620;3.400;2024-02-21T12:56:24;17.60;67.90
46754;DHT22;32500;50.620;3.400;2024-02-21T12:58:52;17.70;68.10
46754;DHT22;32500;50.620;3.400;2024-02-21T13:01:22;17.70;68.10
46754;DHT22;32500;50.620;3.400;2024-02-21T13:03:48;17.60;68.20
46754;DHT22;32500;50.620;3.400;2024-02-21T13:06:14;17.60;68.20
46754;DHT22;32500;50.620;3.400;2024-02-21T13:08:41;17.60;68.10
46754;DHT22;32500;50.620;3.400;2024-02-21T13:11:07;17.60;68.20
46754;DHT22;32500;50.620;3.400;2024-02-21T13:13:33;17.60;68.30
46754;DHT22;32500;50.620;3.400;2024-02-21T13:16:03;17.70;68.30
46754;DHT22;32500;50.620;3.400;2024-02-21T13:18:29;17.70;68.40
46754;DHT22;32500;50.620;3.400;2024-02-21T13:20:55;17.70;68.40
46754;DHT22;32500;50.620;3.400;2024-02-21T13:23:21;17.70;68.40
46754;DHT22;32500;50.620;3.400;2024-02-21T13:25:47;17.70;68.30
46754;DHT22;32500;50.620;3.400;2024-02-21T13:28:13;17.70;68.40
46754;DHT22;32500;50.620;3.400;2024-02-21T13:30:41;17.70;69.00
46754;DHT22;32500;50.620;3.400;2024-02-21T13:33:07;17.70;68.40
46754;DHT22;32500;50.620;3.400;2024-02-21T13:35:33;17.60;68.50
46754;DHT22;32500;50.620;3.400;2024-02-21T13:37:58;17.70;68.40
46754;DHT22;32500;50.620;3.400;2024-02-21T13:40:24;17.60;68.40
46754;DHT22;32500;50.620;3.400;2024-02-21T13:42:51;17.70;68.40
46754;DHT22;32500;50.620;3.400;2024-02-21T13:45:19;17.60;68.50
46754;DHT22;32500;50.620;3.400;2024-02-21T13:47:45;17.60;68.40
46754;DHT22;32500;50.620;3.400;2024-02-21T13:50:11;17.70;68.60
46754;DHT22;32500;50.620;3.400;2024-02-21T13:52:37;17.60;68.40
46754;DHT22;32500;50.620;3.400;2024-02-21T13:55:05;17.60;68.70
46754;DHT22;32500;50.620;3.400;2024-02-21T13:57:36;17.70;68.40
46754;DHT22;32500;50.620;3.400;2024-02-21T14:00:04;17.60;68.50
46754;DHT22;32500;50.620;3.400;2024-02-21T14:02:30;17.70;68.40
46754;DHT22;32500;50.620;3.400;2024-02-21T14:04:56;17.60;69.30
46754;DHT22;32500;50.620;3.400;2024-02-21T14:07:22;17.60;68.30
46754;DHT22;32500;50.620;3.400;2024-02-21T14:09:48;17.60;68.50
46754;DHT22;32500;50.620;3.400;2024-02-21T14:12:15;17.60;68.50
46754;DHT22;32500;50.620;3.400;2024-02-21T14:14:43;17.60;68.50
46754;DHT22;32500;50.620;3.400;2024-02-21T14:17:09;17.60;68.50
46754;DHT22;32500;50.620;3.400;2024-02-21T14:19:35;17.60;68.20
46754;DHT22;32500;50.620;3.400;2024-02-21T14:22:01;17.60;68.20
46754;DHT22;32500;50.620;3.400;2024-02-21T14:24:27;17.60;67.80
46754;DHT22;32500;50.620;3.400;2024-02-21T14:26:54;17.60;67.60
46754;DHT22;32500;50.620;3.400;2024-02-21T14:29:20;17.60;67.60
46754;DHT22;32500;50.620;3.400;2024-02-21T14:31:47;17.60;67.70
46754;DHT22;32500;50.620;3.400;2024-02-21T14:34:12;17.60;67.60
46754;DHT22;32500;50.620;3.400;2024-02-21T14:36:38;17.60;67.60
46754;DHT22;32500;50.620;3.400;2024-02-21T14:39:04;17.60;68.40
46754;DHT22;32500;50.620;3.400;2024-02-21T14:41:30;17.60;68.20
46754;DHT22;32500;50.620;3.400;2024-02-21T14:43:56;17.50;68.10
46754;DHT22;32500;50.620;3.400;2024-02-21T14:46:25;17.60;68.20
46754;DHT22;32500;50.620;3.400;2024-02-21T14:48:56;17.60;68.10
46754;DHT22;32500;50.620;3.400;2024-02-21T14:51:22;17.50;68.00
46754;DHT22;32500;50.620;3.400;2024-02-21T14:53:48;17.50;68.00
46754;DHT22;32500;50.620;3.400;2024-02-21T14:56:16;17.50;67.90
46754;DHT22;32500;50.620;3.400;2024-02-21T14:58:43;17.60;67.90
46754;DHT22;32500;50.620;3.400;2024-02-21T15:01:09;17.50;68.00
46754;DHT22;32500;50.620;3.400;2024-02-21T15:03:35;17.50;68.00
46754;DHT22;32500;50.620;3.400;2024-02-21T15:06:01;17.50;68.00
46754;DHT22;32500;50.620;3.400;2024-02-21T15:08:27;17.50;68.30
46754;DHT22;32500;50.620;3.400;2024-02-21T15:10:53;17.60;68.70
46754;DHT22;32500;50.620;3.400;2024-02-21T15:13:19;17.50;68.60
46754;DHT22;32500;50.620;3.400;2024-02-21T15:15:47;17.50;68.50
46754;DHT22;32500;50.620;3.400;2024-02-21T15:18:16;17.50;68.60
46754;DHT22;32500;50.620;3.400;2024-02-21T15:20:42;17.50;68.70
46754;DHT22;32500;50.620;3.400;2024-02-21T15:23:08;17.50;68.70
46754;DHT22;32500;50.620;3.400;2024-02-21T15:25:33;17.50;68.90
46754;DHT22;32500;50.620;3.400;2024-02-21T15:27:59;17.50;68.50
46754;DHT22;32500;50.620;3.400;2024-02-21T15:30:28;17.50;68.70
46754;DHT22;32500;50.620;3.400;2024-02-21T15:32:57;17.50;68.70
46754;DHT22;32500;50.620;3.400;2024-02-21T15:35:30;17.50;68.80
46754;DHT22;32500;50.620;3.400;2024-02-21T15:37:56;17.50;69.00
46754;DHT22;32500;50.620;3.400;2024-02-21T15:40:23;17.50;68.70